Time;durP1;ratioP1;P1;durP2;ratioP2;P2;SDS_P1;SDS_P2;PMS_P1;PMS_P2;Temp;Humidity;BMP_temperature;BMP_pressure;BME280_temperature;BME280_humidity;BME280_pressure;Samples;Min_cycle;Max_cycle;Signal;HPM_P1;HPM_P2
2022/04/22 00:31:54;;;;;;;4.73;3.40;;;;;;;10.88;77.20;94673.22;4866175;29;20222;-78
2022/04/22 01:49:14;;;;;;;7.60;4.23;;;;;;;9.84;86.31;94625.97;4890717;29;20333;-78
2022/04/22 01:51:41;;;;;;;4.90;4.03;;;;;;;9.86;86.64;94629.22;4997377;28;20300;-78
2022/04/22 01:54:08;;;;;;;5.57;4.63;;;;;;;9.88;86.52;94632.44;5053794;28;20214;-78
2022/04/22 01:56:35;;;;;;;8.27;4.80;;;;;;;9.83;86.38;94622.47;5043461;28;20285;-78
2022/04/22 01:59:02;;;;;;;6.47;4.60;;;;;;;9.83;87.25;94625.16;5051551;28;20210;-77
2022/04/22 02:01:30;;;;;;;6.17;4.20;;;;;;;9.86;85.69;94624.66;5034457;28;20206;-78
2022/04/22 02:03:57;;;;;;;6.43;4.20;;;;;;;9.87;86.03;94625.44;5063494;28;20203;-78
2022/04/22 02:06:26;;;;;;;4.80;3.93;;;;;;;9.91;85.79;94615.75;5041615;28;20259;-78
2022/04/22 02:08:53;;;;;;;6.57;4.37;;;;;;;9.89;86.26;94623.28;5089333;28;20211;-78
2022/04/22 02:11:20;;;;;;;6.10;4.30;;;;;;;9.87;86.86;94618.16;5083780;27;20302;-78
2022/04/22 02:13:48;;;;;;;4.83;4.17;;;;;;;9.86;86.61;94613.88;5085714;28;20260;-78
2022/04/22 02:16:15;;;;;;;5.63;4.27;;;;;;;9.80;87.04;94624.88;5090065;28;20210;-78
2022/04/22 02:18:42;;;;;;;5.67;4.40;;;;;;;9.70;87.68;94609.50;5097595;27;20208;-78
2022/04/22 02:21:11;;;;;;;5.77;4.87;;;;;;;9.71;87.28;94621.91;5085361;28;20196;-78
2022/04/22 02:23:40;;;;;;;5.80;4.60;;;;;;;9.59;88.06;94618.66;5082683;28;20260;-78
2022/04/22 02:26:07;;;;;;;6.73;3.97;;;;;;;9.53;86.47;94614.31;5083109;28;20217;-78
2022/04/22 02:28:34;;;;;;;4.70;4.13;;;;;;;9.43;86.76;94615.13;5105603;27;20203;-78
2022/04/22 02:31:06;;;;;;;5.63;4.40;;;;;;;9.43;88.00;94620.50;5085976;28;20207;-78
2022/04/22 02:33:35;;;;;;;6.33;4.33;;;;;;;9.41;88.45;94611.06;5101492;27;20271;-78
2022/04/22 02:36:02;;;;;;;5.77;4.30;;;;;;;9.39;89.08;94610.50;5104588;27;20196;-77
2022/04/22 02:38:30;;;;;;;6.87;4.50;;;;;;;9.38;88.88;94611.59;5101284;27;20299;-78
2022/04/22 02:46:29;;;;;;;4.40;4.00;;;;;;;9.27;88.82;94594.56;5093209;28;20314;-78
2022/04/22 02:48:57;;;;;;;6.60;4.63;;;;;;;9.26;89.28;94614.53;5095736;28;20204;-78
2022/04/22 02:51:24;;;;;;;4.80;4.10;;;;;;;9.23;90.29;94598.06;5081559;28;20247;-78
2022/04/22 02:53:52;;;;;;;6.53;4.73;;;;;;;9.22;90.38;94612.59;5082408;28;20205;-78
2022/04/22 02:56:22;;;;;;;5.23;4.13;;;;;;;9.12;90.63;94597.22;5079831;28;20215;-78
2022/04/22 02:58:49;;;;;;;6.03;4.70;;;;;;;9.16;91.31;94602.91;5079321;28;20205;-78
2022/04/22 03:01:17;;;;;;;5.20;4.57;;;;;;;9.18;90.79;94603.44;5104684;27;20227;-78
2022/04/22 03:03:45;;;;;;;8.33;5.10;;;;;;;9.20;90.32;94607.47;5083363;28;20200;-78
2022/04/22 03:06:12;;;;;;;5.90;4.37;;;;;;;9.17;90.83;94602.66;5086025;28;20242;-78
2022/04/22 03:08:39;;;;;;;5.33;4.57;;;;;;;9.13;90.74;94608.81;5089467;28;20208;-78
2022/04/22 03:11:06;;;;;;;5.23;4.50;;;;;;;9.05;90.65;94607.44;5084546;28;20211;-78
2022/04/22 03:13:34;;;;;;;8.13;5.07;;;;;;;9.03;91.42;94605.00;5095133;28;20272;-78
2022/04/22 03:16:03;;;;;;;5.73;4.57;;;;;;;9.03;92.44;94610.38;5079737;28;20207;-78
2022/04/22 03:18:30;;;;;;;7.30;5.37;;;;;;;8.99;91.96;94600.41;5095288;28;20223;-78
2022/04/22 03:20:59;;;;;;;8.17;4.97;;;;;;;8.92;92.13;94619.50;5087750;28;20254;-78
2022/04/22 03:23:26;;;;;;;7.33;5.20;;;;;;;8.91;92.91;94619.75;5077242;28;20233;-78
2022/04/22 03:25:54;;;;;;;4.97;4.40;;;;;;;8.88;92.99;94604.94;5082329;27;20320;-78
2022/04/22 03:28:23;;;;;;;6.27;4.43;;;;;;;8.84;93.58;94613.81;5083880;28;20250;-78
2022/04/22 03:30:51;;;;;;;5.70;4.70;;;;;;;8.87;93.56;94614.06;5085222;28;20217;-78
2022/04/22 03:33:19;;;;;;;5.53;4.20;;;;;;;8.89;93.68;94609.25;5083291;28;20196;-78
2022/04/22 03:35:50;;;;;;;5.87;4.83;;;;;;;8.87;93.58;94611.38;5077157;28;20200;-78
2022/04/22 03:38:18;;;;;;;7.50;5.13;;;;;;;8.82;93.36;94597.09;5092969;28;20207;-78
2022/04/22 03:40:45;;;;;;;7.07;4.67;;;;;;;8.70;93.36;94605.38;5097824;27;20200;-78
2022/04/22 03:43:12;;;;;;;7.30;5.03;;;;;;;8.59;94.64;94604.50;5101217;28;20204;-78
2022/04/22 03:45:40;;;;;;;7.53;4.70;;;;;;;8.62;95.27;94613.94;5086219;28;20200;-78
2022/04/22 03:48:09;;;;;;;7.13;4.80;;;;;;;8.56;95.11;94606.91;5103440;28;20196;-78
2022/04/22 03:50:37;;;;;;;6.03;4.60;;;;;;;8.41;95.71;94606.81;5077883;28;20325;-77
2022/04/22 03:53:05;;;;;;;5.80;5.20;;;;;;;8.35;96.71;94597.88;5084292;28;20460;-78
2022/04/22 03:55:32;;;;;;;8.52;5.25;;;;;;;8.33;97.08;94610.81;5083423;28;20428;-78
2022/04/22 03:58:11;;;;;;;9.10;5.93;;;;;;;8.20;98.71;94603.13;5083918;27;20425;-78
2022/04/22 04:00:39;;;;;;;8.57;5.83;;;;;;;8.08;99.28;94597.94;5099896;28;20492;-77
2022/04/22 04:03:09;;;;;;;7.57;6.22;;;;;;;8.09;99.99;94602.25;5102371;28;20426;-78
2022/04/22 04:05:37;;;;;;;7.05;5.95;;;;;;;8.19;98.83;94607.69;5079622;28;20421;-78
2022/04/22 04:08:06;;;;;;;9.63;6.15;;;;;;;8.07;99.17;94604.41;5073797;27;20503;-78
2022/04/22 04:16:02;;;;;;;9.32;6.57;;;;;;;8.00;100.00;94606.47;5086737;28;20428;-78
2022/04/22 04:18:32;;;;;;;9.33;6.00;;;;;;;8.09;100.00;94618.38;5085618;28;20425;-77
2022/04/22 04:23:44;;;;;;;9.57;6.17;;;;;;;7.92;100.00;94620.38;5083572;27;20419;-78
2022/04/22 04:26:13;;;;;;;14.10;10.85;;;;;;;7.92;100.00;94626.56;5089262;28;20416;-78
2022/04/22 04:28:40;;;;;;;12.02;6.68;;;;;;;7.96;100.00;94627.69;5085932;28;20409;-78
2022/04/22 04:31:08;;;;;;;11.00;5.82;;;;;;;7.97;100.00;94632.00;5095411;28;20408;-78
2022/04/22 04:33:37;;;;;;;7.88;6.00;;;;;;;7.96;100.00;94629.56;5081680;28;20421;-78
2022/04/22 04:36:06;;;;;;;6.60;5.88;;;;;;;7.99;100.00;94631.75;5076926;28;20413;-78
2022/04/22 04:38:33;;;;;;;7.55;5.82;;;;;;;7.91;100.00;94632.22;5075722;27;20480;-78
2022/04/22 04:41:00;;;;;;;9.93;6.10;;;;;;;7.93;100.00;94635.44;5080879;28;20419;-78
2022/04/22 04:43:27;;;;;;;7.43;6.53;;;;;;;7.96;100.00;94637.63;5075879;28;20426;-78
2022/04/22 04:45:54;;;;;;;10.63;7.30;;;;;;;7.98;100.00;94635.50;5072028;28;20406;-78
2022/04/22 04:48:22;;;;;;;11.75;6.00;;;;;;;8.01;100.00;94631.47;5084208;27;20418;-78
2022/04/22 04:50:51;;;;;;;7.30;6.23;;;;;;;7.99;100.00;94631.75;5084563;28;20417;-78
2022/04/22 04:53:19;;;;;;;8.32;6.15;;;;;;;8.08;100.00;94632.88;5087675;28;20433;-78
2022/04/22 04:55:47;;;;;;;9.68;6.78;;;;;;;8.05;100.00;94628.03;5080996;28;20424;-78
2022/04/22 04:58:14;;;;;;;11.05;6.65;;;;;;;8.02;100.00;94630.41;5079605;28;20422;-78
2022/04/22 05:00:41;;;;;;;7.75;6.25;;;;;;;8.01;100.00;94629.59;5075590;28;20421;-78
2022/04/22 05:03:08;;;;;;;10.68;6.88;;;;;;;8.00;100.00;94638.72;5080862;28;20463;-78
2022/04/22 05:05:35;;;;;;;8.10;6.40;;;;;;;7.98;100.00;94640.88;5093106;28;20511;-78
2022/04/22 05:08:07;;;;;;;10.10;6.70;;;;;;;8.09;100.00;94653.31;5084139;28;20443;-78
2022/04/22 05:10:35;;;;;;;10.02;7.22;;;;;;;7.98;100.00;94651.63;5084860;28;20796;-78
2022/04/22 05:13:04;;;;;;;11.35;6.90;;;;;;;7.91;100.00;94651.03;5082665;28;20420;-78
2022/04/22 05:15:33;;;;;;;12.75;7.63;;;;;;;7.82;100.00;94649.84;5075423;28;20426;-78
2022/04/22 05:18:02;;;;;;;12.45;8.70;;;;;;;7.81;100.00;94656.28;5084096;28;20412;-78
2022/04/22 05:20:30;;;;;;;10.55;9.38;;;;;;;7.78;100.00;94651.41;5083029;28;20425;-78
2022/04/22 05:22:58;;;;;;;10.00;8.30;;;;;;;7.78;100.00;94637.97;5083003;28;20564;-78
2022/04/22 05:25:27;;;;;;;9.60;8.57;;;;;;;7.90;100.00;94649.41;5083692;28;20435;-78
2022/04/22 05:27:55;;;;;;;8.60;7.15;;;;;;;7.94;100.00;94640.56;5095706;28;20449;-78
2022/04/22 05:33:06;;;;;;;15.35;13.75;;;;;;;8.22;100.00;94642.16;5084782;28;20422;-78
2022/04/22 05:35:34;;;;;;;19.88;17.83;;;;;;;8.32;100.00;94647.63;5076686;28;20408;-78
2022/04/22 05:38:03;;;;;;;16.63;14.93;;;;;;;8.32;100.00;94642.25;5081127;28;20424;-78
2022/04/22 05:40:33;;;;;;;11.90;7.93;;;;;;;8.21;99.41;94645.91;5085537;28;20429;-78
2022/04/22 05:43:00;;;;;;;17.35;8.85;;;;;;;8.17;99.65;94635.91;5077369;28;20474;-78
2022/04/22 05:45:28;;;;;;;12.60;8.35;;;;;;;8.13;99.98;94641.00;5104832;27;20427;-78
2022/04/22 05:47:57;;;;;;;17.08;9.75;;;;;;;8.21;100.00;94639.72;5076244;28;20429;-78
2022/04/22 05:50:26;;;;;;;16.95;10.48;;;;;;;8.20;100.00;94644.28;5084987;28;20414;-78
2022/04/22 05:52:54;;;;;;;14.02;9.40;;;;;;;8.13;100.00;94638.31;5087599;28;20446;-77
2022/04/22 05:55:22;;;;;;;12.27;8.50;;;;;;;8.13;100.00;94640.19;5088116;28;20521;-77
2022/04/22 05:57:53;;;;;;;15.70;8.25;;;;;;;8.23;100.00;94648.34;5103416;28;20435;-77
2022/04/22 06:00:23;;;;;;;11.15;7.68;;;;;;;8.29;99.83;94642.72;5087147;28;20444;-77
2022/04/22 06:02:51;;;;;;;12.75;7.10;;;;;;;8.26;99.38;94642.44;5107695;28;20424;-77
2022/04/22 06:05:20;;;;;;;11.57;7.35;;;;;;;8.27;100.00;94636.78;5083249;28;20420;-77
2022/04/22 06:07:48;;;;;;;14.57;7.63;;;;;;;8.29;100.00;94640.03;5078782;28;20456;-77
2022/04/22 06:10:33;;;;;;;14.35;11.25;;;;;;;8.38;100.00;94635.03;5071839;28;20423;-77
2022/04/22 06:13:02;;;;;;;12.55;10.57;;;;;;;8.47;100.00;94640.75;5083177;28;20416;-77
2022/04/22 06:15:30;;;;;;;12.75;8.85;;;;;;;8.61;100.00;94644.59;5087175;28;20419;-77
2022/04/22 06:17:58;;;;;;;11.80;7.78;;;;;;;8.64;100.00;94644.09;5083774;27;20426;-77
2022/04/22 06:20:25;;;;;;;15.43;8.70;;;;;;;8.58;97.96;94642.44;5086903;28;20421;-77
2022/04/22 06:22:52;;;;;;;19.52;9.48;;;;;;;8.50;100.00;94645.63;5084333;28;20417;-77
2022/04/22 06:25:20;;;;;;;21.45;11.05;;;;;;;8.64;100.00;94649.47;5087818;28;20432;-80
2022/04/22 06:27:47;;;;;;;18.05;11.40;;;;;;;8.69;98.32;94638.72;5100925;28;20423;-77
2022/04/22 06:30:17;;;;;;;18.80;11.18;;;;;;;8.75;98.80;94640.41;5083086;28;20418;-78
2022/04/22 06:32:46;;;;;;;14.00;10.63;;;;;;;8.84;98.62;94641.53;5088515;28;20495;-77
2022/04/22 06:35:14;;;;;;;16.15;10.13;;;;;;;9.02;97.32;94637.56;5088341;28;20417;-77
2022/04/22 06:37:43;;;;;;;14.20;9.60;;;;;;;9.14;97.29;94638.16;5106402;28;20424;-77
2022/04/22 06:45:47;;;;;;;12.93;9.15;;;;;;;9.30;95.74;94630.94;5089159;28;20446;-77
2022/04/22 06:48:16;;;;;;;11.67;8.30;;;;;;;9.34;96.36;94622.09;5087894;28;20219;-77
2022/04/22 06:50:44;;;;;;;9.93;7.77;;;;;;;9.43;93.70;94625.91;5105376;28;20239;-77
2022/04/22 06:53:12;;;;;;;13.80;7.83;;;;;;;9.40;94.55;94626.41;5082664;28;20196;-77
2022/04/22 06:55:40;;;;;;;13.47;8.50;;;;;;;9.43;95.19;94622.38;5086643;28;20210;-77
2022/04/22 06:58:11;;;;;;;8.33;7.43;;;;;;;9.47;94.25;94626.16;5088273;28;20200;-77
2022/04/22 07:00:39;;;;;;;11.73;8.20;;;;;;;9.55;94.47;94614.88;5089340;28;20219;-77
2022/04/22 07:03:09;;;;;;;12.67;8.33;;;;;;;9.65;93.74;94612.19;5091226;28;20203;-77
2022/04/22 07:05:37;;;;;;;10.27;7.77;;;;;;;9.75;91.91;94616.81;5087721;28;20236;-77
2022/04/22 07:08:06;;;;;;;11.67;9.03;;;;;;;9.82;91.37;94612.75;5091450;28;20224;-77
2022/04/22 07:10:34;;;;;;;12.10;8.27;;;;;;;9.89;91.23;94612.50;5106364;28;20204;-77
2022/04/22 07:13:02;;;;;;;15.40;9.37;;;;;;;9.88;91.26;94602.78;5089266;28;20200;-77
2022/04/22 07:15:30;;;;;;;10.53;8.63;;;;;;;10.00;89.92;94602.53;5104822;27;20227;-77
2022/04/22 07:17:57;;;;;;;15.70;9.20;;;;;;;10.02;90.11;94600.41;5087791;28;20295;-77
2022/04/22 07:20:26;;;;;;;12.60;8.87;;;;;;;10.06;91.68;94601.47;5082456;28;20227;-74
2022/04/22 07:22:54;;;;;;;12.07;8.13;;;;;;;10.15;91.33;94602.53;5106714;27;20200;-76
2022/04/22 07:25:22;;;;;;;9.73;8.53;;;;;;;10.29;91.32;94600.16;5094291;28;20204;-76
2022/04/22 07:27:50;;;;;;;15.93;9.17;;;;;;;10.41;88.88;94597.97;5079439;28;20224;-75
2022/04/22 07:30:18;;;;;;;12.30;9.27;;;;;;;10.45;88.37;94599.88;5098903;28;20200;-73
2022/04/22 07:32:48;;;;;;;12.63;9.00;;;;;;;10.48;88.41;94593.09;5073995;28;20204;-74
2022/04/22 07:35:17;;;;;;;13.10;10.00;;;;;;;10.52;89.64;94603.09;5102481;28;20211;-74
2022/04/22 07:37:47;;;;;;;13.30;9.53;;;;;;;10.60;90.26;94591.75;5098605;27;20204;-77
2022/04/22 07:40:16;;;;;;;11.80;9.57;;;;;;;10.78;88.14;94595.75;5081888;28;20204;-77
2022/04/22 07:46:46;;;;;;;14.23;9.60;;;;;;;10.86;86.17;94586.28;5081537;28;20207;-77
2022/04/22 07:48:23;;;;;;;17.33;9.77;;;;;;;10.95;84.07;94592.75;5089166;28;20219;-78
2022/04/22 07:50:52;;;;;;;12.80;10.03;;;;;;;11.00;84.37;94590.81;5102422;28;20235;-78
2022/04/22 07:53:22;;;;;;;13.27;9.73;;;;;;;11.22;82.76;94582.38;5086191;28;20219;-78
2022/04/22 07:55:49;;;;;;;12.93;9.67;;;;;;;11.52;80.44;94586.81;5081247;28;20227;-78
2022/04/22 07:58:17;;;;;;;12.60;9.87;;;;;;;11.59;79.22;94573.78;5076252;27;20211;-78
2022/04/22 08:00:45;;;;;;;13.63;9.90;;;;;;;11.63;78.10;94582.97;5086852;28;20204;-78
2022/04/22 08:03:12;;;;;;;16.03;10.03;;;;;;;11.61;79.62;94578.91;5083171;28;20302;-78
2022/04/22 08:05:40;;;;;;;13.37;10.27;;;;;;;11.64;80.47;94575.66;5086121;28;20211;-77
2022/04/22 08:08:08;;;;;;;17.30;10.77;;;;;;;11.69;81.13;94581.03;5088163;27;20247;-77
2022/04/22 08:10:38;;;;;;;13.77;10.47;;;;;;;11.70;81.61;94583.47;5073076;28;20192;-77
2022/04/22 08:13:06;;;;;;;13.83;10.20;;;;;;;11.88;80.17;94584.72;5095290;27;20211;-77
2022/04/22 08:15:34;;;;;;;15.87;10.90;;;;;;;12.12;78.34;94580.22;5085635;28;20282;-77
2022/04/22 08:18:01;;;;;;;12.60;10.23;;;;;;;12.13;79.95;94581.03;5086271;28;20231;-77
2022/04/22 08:20:31;;;;;;;12.33;10.33;;;;;;;12.28;78.34;94577.38;5087999;28;20231;-77
2022/04/22 08:22:59;;;;;;;16.07;10.00;;;;;;;12.11;79.49;94584.00;5092268;28;20200;-77
2022/04/22 08:25:26;;;;;;;12.10;10.63;;;;;;;12.00;78.38;94579.75;5087292;28;20287;-77
2022/04/22 08:27:55;;;;;;;12.57;10.63;;;;;;;11.80;80.10;94582.63;5088168;28;20226;-77
2022/04/22 08:30:22;;;;;;;13.87;10.23;;;;;;;11.81;79.93;94581.53;5080799;28;20200;-77
2022/04/22 08:32:49;;;;;;;14.17;10.63;;;;;;;11.81;79.24;94580.72;5088652;28;20291;-77
2022/04/22 08:35:16;;;;;;;13.20;10.50;;;;;;;11.80;80.66;94576.41;5098716;28;20204;-77
2022/04/22 08:37:45;;;;;;;12.67;10.67;;;;;;;11.93;79.14;94567.66;5087279;28;20238;-77
2022/04/22 08:40:12;;;;;;;11.80;10.27;;;;;;;12.19;77.35;94573.66;5083921;28;20212;-77
2022/04/22 08:42:42;;;;;;;13.20;10.33;;;;;;;12.43;76.45;94575.34;5085641;28;20247;-77
2022/04/22 08:45:11;;;;;;;12.97;9.90;;;;;;;12.60;76.84;94572.22;5101575;28;20200;-77
2022/04/22 08:50:23;;;;;;;12.67;10.27;;;;;;;12.26;76.03;94566.03;5101742;28;20242;-77
2022/04/22 08:52:56;;;;;;;13.43;10.07;;;;;;;12.09;77.96;94558.31;5105023;27;20252;-77
2022/04/22 08:55:25;;;;;;;13.67;10.23;;;;;;;12.28;77.18;94561.16;5089851;28;20200;-77
2022/04/22 08:57:54;;;;;;;13.10;10.07;;;;;;;12.33;76.81;94558.41;5086686;28;20204;-77
2022/04/22 09:00:27;;;;;;;14.33;10.00;;;;;;;12.52;74.69;94564.72;5072895;28;20282;-77
2022/04/22 09:02:56;;;;;;;14.03;10.43;;;;;;;12.76;74.29;94570.97;5081577;28;20208;-77
2022/04/22 09:05:23;;;;;;;15.33;10.50;;;;;;;12.61;75.48;94568.41;5110868;27;20208;-77
2022/04/22 09:07:52;;;;;;;14.00;11.00;;;;;;;12.60;75.01;94572.22;5083083;28;20248;-77
2022/04/22 09:10:20;;;;;;;15.50;10.53;;;;;;;12.69;74.89;94573.19;5084987;28;20195;-77
2022/04/22 09:12:53;;;;;;;12.67;10.37;;;;;;;12.91;73.67;94580.03;5101710;28;20217;-77
2022/04/22 09:15:24;;;;;;;12.37;10.63;;;;;;;13.12;71.87;94570.56;5085231;28;20219;-77
2022/04/22 09:17:57;;;;;;;15.60;10.63;;;;;;;13.42;71.40;94575.66;5100434;28;20208;-77
2022/04/22 09:20:33;;;;;;;12.67;10.23;;;;;;;13.66;69.40;94577.50;5100618;28;20253;-77
2022/04/22 09:23:00;;;;;;;14.17;9.77;;;;;;;13.78;68.56;94573.25;5078382;28;20209;-77
2022/04/22 09:25:28;;;;;;;13.33;10.03;;;;;;;13.78;67.93;94575.19;5078873;28;20204;-77
2022/04/22 09:28:09;;;;;;;16.27;10.83;;;;;;;13.76;68.34;94574.66;5083029;28;20255;-78
2022/04/22 09:30:38;;;;;;;14.13;11.10;;;;;;;13.66;68.62;94572.09;5075941;28;20204;-77
2022/04/22 09:33:08;;;;;;;12.50;10.37;;;;;;;13.69;67.91;94572.31;5080372;28;20196;-77
2022/04/22 09:42:38;;;;;;;17.87;11.30;;;;;;;13.73;69.13;94581.47;5079568;28;20266;-77
2022/04/22 09:43:58;;;;;;;13.07;10.57;;;;;;;13.95;67.90;94572.75;5080188;28;20247;-77
2022/04/22 09:46:30;;;;;;;14.20;11.00;;;;;;;14.01;67.57;94571.56;5076180;28;20200;-78
2022/04/22 09:48:57;;;;;;;12.63;11.07;;;;;;;13.93;66.64;94570.34;5071887;28;20236;-77
2022/04/22 09:51:27;;;;;;;16.47;10.60;;;;;;;13.86;66.77;94558.25;5073118;28;20232;-77
2022/04/22 09:54:05;;;;;;;13.50;10.67;;;;;;;13.94;67.57;94565.72;5077744;28;20223;-77
2022/04/22 09:56:33;;;;;;;13.20;11.30;;;;;;;13.84;66.90;94566.66;5081742;28;20208;-78
2022/04/22 09:59:00;;;;;;;16.23;11.17;;;;;;;13.84;67.12;94563.16;5082173;28;20291;-78
2022/04/22 10:01:29;;;;;;;14.67;11.13;;;;;;;13.81;66.32;94555.59;5080876;28;20228;-78
2022/04/22 10:03:56;;;;;;;15.97;11.83;;;;;;;13.92;66.25;94557.06;5080505;28;20276;-77
2022/04/22 10:06:23;;;;;;;15.77;11.27;;;;;;;14.01;65.64;94560.72;5099601;28;20204;-78
2022/04/22 10:08:56;;;;;;;19.17;11.83;;;;;;;14.19;64.28;94548.22;5082285;28;20216;-78
2022/04/22 10:11:25;;;;;;;13.07;11.00;;;;;;;14.24;63.92;94548.94;5103686;28;20215;-77
2022/04/22 10:13:55;;;;;;;14.17;10.73;;;;;;;14.34;63.86;94551.50;5081567;28;20191;-77
2022/04/22 10:16:22;;;;;;;13.83;11.17;;;;;;;14.48;64.15;94558.88;5079632;28;20209;-78
2022/04/22 10:18:53;;;;;;;12.03;10.27;;;;;;;14.66;62.85;94549.88;5088005;28;20291;-77
2022/04/22 10:21:21;;;;;;;15.03;10.67;;;;;;;14.61;62.25;94544.56;5098395;28;20205;-78
2022/04/22 10:23:50;;;;;;;15.57;10.27;;;;;;;14.75;61.97;94554.31;5080084;28;20277;-78
2022/04/22 10:26:17;;;;;;;15.03;11.93;;;;;;;14.93;61.12;94547.19;5085330;28;20201;-78
2022/04/22 10:28:45;;;;;;;17.10;11.77;;;;;;;14.87;61.17;94548.41;5105140;28;20213;-78
2022/04/22 10:31:13;;;;;;;16.30;10.83;;;;;;;14.66;60.89;94545.25;5082683;28;20485;-78
2022/04/22 10:33:42;;;;;;;13.10;11.50;;;;;;;14.59;62.89;94544.03;5104703;27;20204;-78
2022/04/22 10:36:16;;;;;;;13.47;11.00;;;;;;;14.68;63.28;94543.06;5084034;28;20291;-83
2022/04/22 10:38:46;;;;;;;14.03;11.43;;;;;;;14.87;62.42;94539.47;5081327;27;20195;-83
2022/04/22 10:41:16;;;;;;;13.53;11.60;;;;;;;15.00;61.18;94544.88;5086758;27;20223;-82
2022/04/22 10:43:43;;;;;;;14.43;10.53;;;;;;;15.09;60.18;94548.50;5101424;28;20210;-81
2022/04/22 10:49:14;;;;;;;13.43;11.50;;;;;;;15.28;60.25;94544.88;5100588;28;20220;-82
2022/04/22 10:52:09;;;;;;;13.93;12.23;;;;;;;15.38;60.29;94545.50;5072817;28;20247;-82
2022/04/22 10:55:07;;;;;;;13.70;11.63;;;;;;;15.53;60.40;94541.63;5062210;28;20300;-83
2022/04/22 10:57:35;;;;;;;14.57;12.63;;;;;;;15.63;58.85;94538.72;5066329;28;20213;-84
2022/04/22 11:00:27;;;;;;;15.83;11.77;;;;;;;15.71;58.52;94535.28;5066570;28;20189;-84
2022/04/22 11:03:13;;;;;;;12.00;10.53;;;;;;;15.79;58.21;94523.66;5082305;28;20219;-83
2022/04/22 11:05:46;;;;;;;13.97;11.33;;;;;;;15.91;58.31;94533.22;5068202;28;20216;-83
2022/04/22 11:08:37;;;;;;;15.20;11.00;;;;;;;16.01;56.42;94530.22;5089449;28;20730;-83
2022/04/22 11:11:13;;;;;;;15.30;11.37;;;;;;;16.00;57.07;94534.06;5070052;28;20193;-83
2022/04/22 11:13:45;;;;;;;12.97;11.10;;;;;;;16.32;57.24;94531.13;5063956;28;20212;-82
2022/04/22 11:16:26;;;;;;;12.47;10.77;;;;;;;16.66;54.86;94536.00;5058508;28;20229;-82
2022/04/22 11:19:13;;;;;;;12.60;10.23;;;;;;;16.82;54.42;94533.69;5061582;28;20216;-82
2022/04/22 11:21:41;;;;;;;12.80;10.47;;;;;;;16.93;53.20;94533.09;5055947;28;20225;-82
2022/04/22 11:24:14;;;;;;;14.03;10.73;;;;;;;16.99;52.44;94539.22;5064484;28;20223;-82
2022/04/22 11:26:44;;;;;;;14.27;10.87;;;;;;;16.97;52.76;94536.00;5063327;28;20227;-83
2022/04/22 11:29:12;;;;;;;11.80;9.97;;;;;;;17.14;52.06;94529.81;5060120;28;20224;-82
2022/04/22 11:31:39;;;;;;;12.80;10.07;;;;;;;17.38;51.09;94528.28;5057122;28;20279;-82
2022/04/22 11:34:11;;;;;;;10.07;9.00;;;;;;;17.63;49.14;94525.97;5065334;28;20204;-82
2022/04/22 11:36:46;;;;;;;10.10;9.00;;;;;;;17.69;47.44;94520.03;5068323;28;20219;-82
2022/04/22 11:39:22;;;;;;;14.23;9.47;;;;;;;17.97;47.54;94519.72;5067146;28;20211;-82
2022/04/22 11:41:57;;;;;;;12.87;10.60;;;;;;;17.94;48.25;94521.19;5066913;28;20211;-82
2022/04/22 11:44:24;;;;;;;13.13;10.70;;;;;;;17.81;48.90;94515.88;5062490;28;20278;-82
2022/04/22 11:46:52;;;;;;;11.40;9.93;;;;;;;17.89;48.96;94521.34;5062658;28;20201;-82
2022/04/22 11:49:19;;;;;;;13.27;10.07;;;;;;;18.05;48.55;94514.25;5070492;28;20224;-82
2022/04/22 11:51:46;;;;;;;11.50;10.30;;;;;;;17.86;49.57;94515.72;5088165;28;20291;-82
2022/04/22 11:54:24;;;;;;;13.37;11.40;;;;;;;17.87;48.96;94520.84;5084385;28;20212;-81
2022/04/22 11:56:52;;;;;;;12.37;11.07;;;;;;;17.71;48.94;94517.78;5086078;28;20237;-81
2022/04/22 11:59:20;;;;;;;14.17;10.80;;;;;;;17.90;49.58;94517.47;5075149;28;20188;-81
2022/04/22 12:10:12;;;;;;;13.03;11.17;;;;;;;18.05;48.69;94519.72;5086703;28;20256;-82
2022/04/22 12:12:49;;;;;;;11.43;10.23;;;;;;;17.91;50.06;94512.81;5088883;27;20206;-82
2022/04/22 12:15:19;;;;;;;13.43;11.43;;;;;;;18.11;50.46;94513.00;5083287;28;20203;-81
2022/04/22 12:17:46;;;;;;;15.43;11.97;;;;;;;18.04;49.27;94512.66;5080189;28;20294;-82
2022/04/22 12:20:14;;;;;;;13.93;11.27;;;;;;;18.19;49.64;94507.84;5081349;28;20204;-82
2022/04/22 12:22:42;;;;;;;16.10;12.20;;;;;;;18.22;50.23;94508.00;5094246;28;20210;-82
2022/04/22 12:25:10;;;;;;;14.60;10.77;;;;;;;18.33;49.43;94500.28;5083731;28;20298;-82
2022/04/22 12:27:40;;;;;;;11.97;10.67;;;;;;;18.33;47.95;94500.28;5084335;28;20184;-82
2022/04/22 12:30:09;;;;;;;11.53;10.33;;;;;;;18.54;48.40;94501.22;5086299;28;20255;-81
2022/04/22 12:32:37;;;;;;;13.53;10.03;;;;;;;18.62;47.73;94502.34;5084152;28;20204;-82
2022/04/22 12:35:12;;;;;;;13.53;10.70;;;;;;;18.84;47.33;94510.31;5085177;28;20200;-82
2022/04/22 12:37:44;;;;;;;15.83;11.87;;;;;;;18.87;46.56;94501.47;5076834;28;20195;-82
2022/04/22 12:40:13;;;;;;;13.60;11.37;;;;;;;18.87;46.96;94494.06;5109128;27;20218;-81
2022/04/22 12:42:41;;;;;;;12.40;11.13;;;;;;;18.86;46.84;94497.13;5082171;28;20268;-82
2022/04/22 12:53:33;;;;;;;13.20;11.80;;;;;;;18.72;48.37;94494.56;5099560;28;20200;-82
2022/04/22 12:56:01;;;;;;;14.10;11.60;;;;;;;18.78;49.04;94489.75;5086381;28;20199;-82
2022/04/22 12:58:30;;;;;;;12.70;11.40;;;;;;;18.57;49.58;94483.38;5084202;28;20204;-82
2022/04/22 13:00:58;;;;;;;14.17;11.40;;;;;;;18.80;48.01;94484.75;5088425;28;20205;-82
2022/04/22 13:03:37;;;;;;;13.27;11.00;;;;;;;19.01;48.29;94488.38;5083355;28;20221;-82
2022/04/22 13:06:05;;;;;;;16.07;11.07;;;;;;;19.04;47.36;94482.25;5076774;28;20200;-81
2022/04/22 13:08:32;;;;;;;15.13;11.77;;;;;;;19.16;46.22;94485.09;5091670;28;20200;-82
2022/04/22 13:11:02;;;;;;;12.53;11.27;;;;;;;19.20;46.18;94469.63;5074245;28;20200;-81
2022/04/22 13:13:30;;;;;;;13.33;11.23;;;;;;;19.25;46.43;94471.34;5079130;28;20215;-82
2022/04/22 13:15:59;;;;;;;12.60;11.30;;;;;;;19.41;46.60;94466.91;5088217;28;20200;-82
2022/04/22 13:18:26;;;;;;;12.40;10.30;;;;;;;19.32;46.99;94465.38;5082172;28;20239;-81
2022/04/22 13:20:54;;;;;;;12.48;11.25;;;;;;;19.45;45.92;94470.59;5088465;28;20303;-82
2022/04/22 13:23:24;;;;;;;12.53;11.23;;;;;;;19.49;44.98;94470.75;5074991;28;20220;-81
2022/04/22 13:25:51;;;;;;;14.82;10.10;;;;;;;19.41;45.61;94464.19;5084065;28;20235;-81
2022/04/22 13:28:18;;;;;;;13.23;10.70;;;;;;;19.49;45.64;94466.09;5106631;28;20207;-81
2022/04/22 13:30:46;;;;;;;15.17;11.10;;;;;;;19.56;45.19;94466.38;5076410;28;20224;-81
2022/04/22 13:33:14;;;;;;;13.27;9.77;;;;;;;19.70;45.26;94465.31;5087934;28;20283;-81
2022/04/22 13:35:41;;;;;;;13.00;9.52;;;;;;;19.67;42.95;94453.09;5085601;28;20291;-81
2022/04/22 13:38:08;;;;;;;11.45;9.63;;;;;;;19.61;44.26;94466.19;5088235;28;20200;-81
2022/04/22 13:40:35;;;;;;;12.10;9.13;;;;;;;19.70;43.81;94457.09;5086950;28;20226;-81
2022/04/22 13:43:02;;;;;;;12.93;8.95;;;;;;;19.59;44.01;94454.75;5090367;28;20280;-81
2022/04/22 13:53:44;;;;;;;11.38;9.13;;;;;;;19.88;43.68;94451.16;5083824;28;20204;-82
2022/04/22 13:56:11;;;;;;;10.52;8.70;;;;;;;19.96;44.34;94452.22;5090618;28;20200;-82
2022/04/22 13:58:39;;;;;;;11.90;8.93;;;;;;;19.96;43.14;94444.00;5088323;28;20213;-82
2022/04/22 14:01:06;;;;;;;9.32;8.35;;;;;;;19.88;43.88;94439.41;5082840;28;20261;-81
2022/04/22 14:03:35;;;;;;;9.55;7.25;;;;;;;20.30;44.21;94443.69;5097009;28;20205;-81
2022/04/22 14:06:02;;;;;;;9.45;8.13;;;;;;;20.61;41.82;94440.50;5085613;28;20272;-81
2022/04/22 14:08:29;;;;;;;9.30;8.40;;;;;;;20.63;40.86;94440.94;5082348;28;20209;-81
2022/04/22 14:10:56;;;;;;;11.65;7.75;;;;;;;20.54;41.09;94439.44;5084526;28;20224;-81
2022/04/22 14:13:23;;;;;;;9.27;8.27;;;;;;;20.55;41.61;94441.84;5091787;28;20207;-82
2022/04/22 14:15:50;;;;;;;13.82;8.27;;;;;;;20.50;43.17;94433.06;5093433;28;20200;-80
2022/04/22 14:18:17;;;;;;;8.60;7.70;;;;;;;20.59;42.04;94450.19;5093701;28;20224;-80
2022/04/22 14:20:46;;;;;;;9.38;7.18;;;;;;;20.49;40.83;94448.69;5085538;28;20211;-80
2022/04/22 14:23:13;;;;;;;9.48;7.32;;;;;;;20.37;40.57;94435.75;5089484;28;20219;-80